THY1266 LTFM-EHAM
Flight info
| Callsign | THY1266 |
|---|---|
| Flight time | N/A |
| Altitude | 38000 |
| Route | TUDBU1E/36 TUDBU DCT ETUBA DCT ELDET DCT BACAM DCT SODGO DCT INVED DCT DITIS DCT VARIK DCT KATCE DCT NORKU |
| Aircraft | A359/H-SDE2E3GHIJ3J4J5LM1ORWXY/LB1D1 |
Departure
| Time | 2026-05-07 14:10 |
|---|---|
| Airport | İstanbul Airport (LTFM) |
Arrival
| Time | N/A |
|---|---|
| Airport | Amsterdam Airport Schiphol (EHAM) |
| Time | Latitude | Longitude | Altitude | Speed | Heading |
|---|---|---|---|---|---|
| 2026-05-07 13:37 | 41.26744 | 28.75046 | 336 ft | 0 kts | 271° |
| 2026-05-07 13:56 | 41.26744 | 28.75070 | 335 ft | 4 kts | 267° |
| 2026-05-07 13:57 | 41.26746 | 28.75106 | 337 ft | 4 kts | 268° |
| 2026-05-07 13:57 | 41.26746 | 28.75137 | 337 ft | 4 kts | 253° |
| 2026-05-07 13:57 | 41.26760 | 28.75160 | 335 ft | 4 kts | 193° |
| 2026-05-07 13:57 | 41.26786 | 28.75161 | 335 ft | 4 kts | 172° |
| 2026-05-07 13:58 | 41.26813 | 28.75155 | 335 ft | 4 kts | 172° |
| 2026-05-07 13:58 | 41.26826 | 28.75153 | 336 ft | 0 kts | 179° |
| 2026-05-07 14:04 | 41.26824 | 28.75153 | 340 ft | 1 kts | 179° |
| 2026-05-07 14:04 | 41.26765 | 28.75155 | 336 ft | 15 kts | 179° |
| 2026-05-07 14:04 | 41.26741 | 28.75155 | 338 ft | 0 kts | 179° |
| 2026-05-07 14:05 | 41.26716 | 28.75156 | 337 ft | 7 kts | 179° |
| 2026-05-07 14:05 | 41.26706 | 28.75156 | 336 ft | 0 kts | 179° |
| 2026-05-07 14:06 | 41.26673 | 28.75155 | 335 ft | 15 kts | 183° |
| 2026-05-07 14:06 | 41.26535 | 28.75105 | 336 ft | 23 kts | 197° |
| 2026-05-07 14:06 | 41.26376 | 28.75041 | 336 ft | 24 kts | 196° |
| 2026-05-07 14:07 | 41.26288 | 28.75012 | 338 ft | 9 kts | 179° |
| 2026-05-07 14:07 | 41.26249 | 28.75064 | 337 ft | 9 kts | 107° |
| 2026-05-07 14:07 | 41.26246 | 28.75146 | 340 ft | 9 kts | 90° |
| 2026-05-07 14:07 | 41.26246 | 28.75240 | 340 ft | 11 kts | 89° |
| 2026-05-07 14:08 | 41.26247 | 28.75344 | 339 ft | 12 kts | 89° |
| 2026-05-07 14:08 | 41.26248 | 28.75472 | 340 ft | 16 kts | 89° |
| 2026-05-07 14:08 | 41.26256 | 28.75615 | 335 ft | 15 kts | 68° |
| 2026-05-07 14:08 | 41.26342 | 28.75666 | 335 ft | 15 kts | 356° |
| 2026-05-07 14:09 | 41.26447 | 28.75660 | 339 ft | 16 kts | 359° |
| 2026-05-07 14:09 | 41.26560 | 28.75657 | 337 ft | 18 kts | 359° |
| 2026-05-07 14:09 | 41.26868 | 28.75656 | 340 ft | 76 kts | 360° |
| 2026-05-07 14:09 | 41.27603 | 28.75641 | 337 ft | 133 kts | 359° |
| 2026-05-07 14:10 | 41.28677 | 28.75617 | 451 ft | 170 kts | 2° |
| 2026-05-07 14:10 | 41.29819 | 28.75580 | 1188 ft | 159 kts | 0° |
| 2026-05-07 14:10 | 41.30936 | 28.75648 | 1765 ft | 165 kts | 9° |
| 2026-05-07 14:10 | 41.32063 | 28.76142 | 2305 ft | 175 kts | 25° |
| 2026-05-07 14:11 | 41.33141 | 28.77013 | 2781 ft | 188 kts | 31° |
| 2026-05-07 14:11 | 41.34271 | 28.77999 | 3264 ft | 201 kts | 31° |
| 2026-05-07 14:11 | 41.35596 | 28.78740 | 3650 ft | 214 kts | 7° |
| 2026-05-07 14:11 | 41.37117 | 28.78909 | 4067 ft | 227 kts | 353° |
| 2026-05-07 14:12 | 41.38699 | 28.78477 | 4539 ft | 238 kts | 336° |
| 2026-05-07 14:12 | 41.40233 | 28.77563 | 5171 ft | 244 kts | 332° |
| 2026-05-07 14:12 | 41.41771 | 28.76556 | 5849 ft | 249 kts | 331° |
| 2026-05-07 14:12 | 41.43336 | 28.75515 | 6541 ft | 254 kts | 331° |
| 2026-05-07 14:13 | 41.44877 | 28.74328 | 7067 ft | 259 kts | 317° |
| 2026-05-07 14:13 | 41.46228 | 28.72683 | 7650 ft | 266 kts | 315° |
| 2026-05-07 14:13 | 41.47571 | 28.70974 | 7973 ft | 268 kts | 315° |
| 2026-05-07 14:13 | 41.48928 | 28.69246 | 8351 ft | 272 kts | 315° |
| 2026-05-07 14:14 | 41.50289 | 28.67518 | 9104 ft | 274 kts | 316° |
| 2026-05-07 14:14 | 41.51672 | 28.65763 | 9954 ft | 276 kts | 316° |
| 2026-05-07 14:14 | 41.53088 | 28.63968 | 10475 ft | 289 kts | 316° |
| 2026-05-07 14:14 | 41.54592 | 28.62061 | 10804 ft | 308 kts | 316° |
| 2026-05-07 14:15 | 41.56188 | 28.60036 | 11108 ft | 325 kts | 316° |
| 2026-05-07 14:15 | 41.57293 | 28.58636 | 11379 ft | 334 kts | 316° |
| 2026-05-07 14:15 | 41.58999 | 28.56469 | 11946 ft | 342 kts | 316° |
| 2026-05-07 14:15 | 41.61332 | 28.53505 | 12822 ft | 349 kts | 316° |
| 2026-05-07 14:16 | 41.62502 | 28.52018 | 13250 ft | 352 kts | 316° |
| 2026-05-07 14:16 | 41.64292 | 28.49740 | 13934 ft | 357 kts | 316° |
| 2026-05-07 14:16 | 41.66084 | 28.47412 | 14540 ft | 361 kts | 313° |
| 2026-05-07 14:16 | 41.67573 | 28.44704 | 15176 ft | 363 kts | 298° |
| 2026-05-07 14:17 | 41.68666 | 28.41645 | 15821 ft | 366 kts | 294° |
| 2026-05-07 14:17 | 41.69682 | 28.38511 | 16472 ft | 369 kts | 294° |
| 2026-05-07 14:17 | 41.70705 | 28.35340 | 17094 ft | 372 kts | 294° |
| 2026-05-07 14:17 | 41.71736 | 28.32152 | 17736 ft | 374 kts | 294° |
| 2026-05-07 14:18 | 41.72764 | 28.28987 | 18345 ft | 377 kts | 294° |
| 2026-05-07 14:18 | 41.73815 | 28.25752 | 18895 ft | 380 kts | 294° |
| 2026-05-07 14:18 | 41.74876 | 28.22490 | 19483 ft | 382 kts | 294° |
| 2026-05-07 14:18 | 41.75936 | 28.19224 | 20091 ft | 383 kts | 294° |
| 2026-05-07 14:19 | 41.77003 | 28.15940 | 20705 ft | 385 kts | 294° |
| 2026-05-07 14:19 | 41.78072 | 28.12641 | 21308 ft | 387 kts | 295° |
| 2026-05-07 14:19 | 41.79196 | 28.09351 | 21902 ft | 389 kts | 298° |
| 2026-05-07 14:19 | 41.80650 | 28.06288 | 22498 ft | 390 kts | 307° |
| 2026-05-07 14:20 | 41.82278 | 28.03357 | 23093 ft | 392 kts | 308° |
| 2026-05-07 14:20 | 41.83930 | 28.00437 | 23702 ft | 394 kts | 308° |
| 2026-05-07 14:20 | 41.85591 | 27.97495 | 24164 ft | 397 kts | 308° |
| 2026-05-07 14:20 | 41.87260 | 27.94528 | 24624 ft | 399 kts | 308° |
| 2026-05-07 14:21 | 41.88937 | 27.91542 | 25091 ft | 402 kts | 308° |
| 2026-05-07 14:21 | 41.90599 | 27.88575 | 25558 ft | 404 kts | 307° |
| 2026-05-07 14:21 | 41.92294 | 27.85546 | 26034 ft | 406 kts | 307° |
| 2026-05-07 14:21 | 41.93995 | 27.82503 | 26460 ft | 409 kts | 307° |
| 2026-05-07 14:22 | 41.95712 | 27.79434 | 26885 ft | 412 kts | 307° |
| 2026-05-07 14:22 | 41.97568 | 27.76486 | 27358 ft | 414 kts | 312° |
| 2026-05-07 14:22 | 41.99542 | 27.73656 | 27838 ft | 416 kts | 314° |
| 2026-05-07 14:22 | 42.01572 | 27.70863 | 28291 ft | 418 kts | 314° |
| 2026-05-07 14:23 | 42.03628 | 27.68082 | 28719 ft | 421 kts | 314° |
| 2026-05-07 14:23 | 42.05704 | 27.65284 | 29148 ft | 423 kts | 314° |
| 2026-05-07 14:23 | 42.07782 | 27.62471 | 29580 ft | 425 kts | 314° |
| 2026-05-07 14:23 | 42.09873 | 27.59625 | 29927 ft | 429 kts | 314° |
| 2026-05-07 14:24 | 42.11977 | 27.56746 | 30238 ft | 433 kts | 314° |
| 2026-05-07 14:24 | 42.14093 | 27.53841 | 30589 ft | 434 kts | 314° |
| 2026-05-07 14:24 | 42.16175 | 27.50975 | 31012 ft | 434 kts | 314° |
| 2026-05-07 14:24 | 42.18295 | 27.48051 | 31345 ft | 436 kts | 313° |
| 2026-05-07 14:25 | 42.20429 | 27.45105 | 31546 ft | 441 kts | 313° |
| 2026-05-07 14:25 | 42.24761 | 27.39118 | 31871 ft | 451 kts | 313° |
| 2026-05-07 14:25 | 42.26962 | 27.36071 | 32005 ft | 456 kts | 313° |
| 2026-05-07 14:26 | 42.29186 | 27.32990 | 32149 ft | 460 kts | 313° |
| 2026-05-07 14:26 | 42.31431 | 27.29877 | 32278 ft | 464 kts | 313° |
| 2026-05-07 14:26 | 42.33693 | 27.26739 | 32411 ft | 468 kts | 313° |
| 2026-05-07 14:26 | 42.35971 | 27.23573 | 32527 ft | 471 kts | 313° |
| 2026-05-07 14:27 | 42.38255 | 27.20395 | 32610 ft | 473 kts | 313° |
| 2026-05-07 14:27 | 42.42857 | 27.13982 | 32702 ft | 476 kts | 313° |
| 2026-05-07 14:28 | 42.47476 | 27.07530 | 32798 ft | 477 kts | 313° |
| 2026-05-07 14:28 | 42.52064 | 27.01108 | 32808 ft | 477 kts | 313° |
| 2026-05-07 14:29 | 42.56692 | 26.94615 | 32814 ft | 478 kts | 313° |
| 2026-05-07 14:29 | 42.61315 | 26.88115 | 32810 ft | 478 kts | 312° |
| 2026-05-07 14:30 | 42.65934 | 26.81604 | 32800 ft | 478 kts | 312° |
| 2026-05-07 14:30 | 42.70550 | 26.75082 | 32797 ft | 478 kts | 312° |
| 2026-05-07 14:31 | 42.75133 | 26.68592 | 32810 ft | 479 kts | 312° |
| 2026-05-07 14:31 | 42.79751 | 26.62037 | 32799 ft | 479 kts | 312° |
| 2026-05-07 14:32 | 42.83949 | 26.55007 | 32791 ft | 478 kts | 306° |
| 2026-05-07 14:32 | 42.87923 | 26.47745 | 32793 ft | 478 kts | 305° |
| 2026-05-07 14:33 | 42.91845 | 26.40465 | 32788 ft | 478 kts | 304° |
| 2026-05-07 14:33 | 42.95729 | 26.33238 | 32779 ft | 479 kts | 304° |
| 2026-05-07 14:34 | 42.99673 | 26.25900 | 32774 ft | 479 kts | 304° |
| 2026-05-07 14:34 | 43.03594 | 26.18595 | 32768 ft | 480 kts | 304° |
| 2026-05-07 14:35 | 43.07550 | 26.11208 | 32763 ft | 481 kts | 304° |
| 2026-05-07 14:35 | 43.11503 | 26.03804 | 32764 ft | 482 kts | 304° |
| 2026-05-07 14:36 | 43.15458 | 25.96380 | 32767 ft | 483 kts | 304° |
| 2026-05-07 14:36 | 43.19424 | 25.88918 | 32760 ft | 485 kts | 304° |
| 2026-05-07 14:37 | 43.23396 | 25.81423 | 32757 ft | 486 kts | 304° |
| 2026-05-07 14:37 | 43.29326 | 25.70200 | 32757 ft | 486 kts | 304° |
| 2026-05-07 14:38 | 43.33289 | 25.62674 | 32755 ft | 486 kts | 304° |
| 2026-05-07 14:38 | 43.37258 | 25.55119 | 32752 ft | 486 kts | 304° |
| 2026-05-07 14:39 | 43.41212 | 25.47572 | 32749 ft | 486 kts | 304° |
| 2026-05-07 14:39 | 43.45160 | 25.40019 | 32753 ft | 487 kts | 303° |
| 2026-05-07 14:40 | 43.49088 | 25.32481 | 32760 ft | 488 kts | 303° |
| 2026-05-07 14:40 | 43.53047 | 25.24864 | 32771 ft | 489 kts | 303° |
| 2026-05-07 14:41 | 43.56989 | 25.17263 | 33173 ft | 482 kts | 303° |
| 2026-05-07 14:41 | 43.58934 | 25.13509 | 33528 ft | 478 kts | 303° |
| 2026-05-07 14:41 | 43.60872 | 25.09795 | 33910 ft | 475 kts | 304° |
| 2026-05-07 14:42 | 43.62899 | 25.06197 | 34264 ft | 473 kts | 305° |
| 2026-05-07 14:42 | 43.64945 | 25.02654 | 34596 ft | 471 kts | 306° |
| 2026-05-07 14:42 | 43.66997 | 24.99147 | 34943 ft | 468 kts | 306° |
| 2026-05-07 14:42 | 43.69047 | 24.95660 | 35291 ft | 466 kts | 306° |
| 2026-05-07 14:43 | 43.71061 | 24.92235 | 35633 ft | 463 kts | 306° |
| 2026-05-07 14:43 | 43.73086 | 24.88785 | 35999 ft | 461 kts | 306° |
| 2026-05-07 14:43 | 43.75097 | 24.85352 | 36353 ft | 458 kts | 306° |
| 2026-05-07 14:43 | 43.77092 | 24.81937 | 36717 ft | 454 kts | 306° |
| 2026-05-07 14:44 | 43.79070 | 24.78544 | 37092 ft | 451 kts | 306° |
| 2026-05-07 14:44 | 43.81029 | 24.75178 | 37469 ft | 447 kts | 306° |
| 2026-05-07 14:44 | 43.82970 | 24.71839 | 37853 ft | 443 kts | 306° |
| 2026-05-07 14:44 | 43.84899 | 24.68515 | 38026 ft | 444 kts | 306° |
| 2026-05-07 14:45 | 43.88799 | 24.61777 | 38037 ft | 452 kts | 306° |
| 2026-05-07 14:45 | 43.92758 | 24.54924 | 38033 ft | 459 kts | 306° |
| 2026-05-07 14:46 | 43.96782 | 24.47946 | 38033 ft | 466 kts | 306° |
| 2026-05-07 14:46 | 44.00871 | 24.40843 | 38038 ft | 473 kts | 306° |
| 2026-05-07 14:47 | 44.04997 | 24.33657 | 38043 ft | 478 kts | 306° |
| 2026-05-07 14:47 | 44.09123 | 24.26453 | 38037 ft | 480 kts | 305° |
| 2026-05-07 14:48 | 44.13286 | 24.19166 | 38037 ft | 480 kts | 305° |
| 2026-05-07 14:48 | 44.17440 | 24.11877 | 38037 ft | 480 kts | 305° |
| 2026-05-07 14:49 | 44.21593 | 24.04568 | 38037 ft | 480 kts | 305° |
| 2026-05-07 14:49 | 44.25749 | 23.97236 | 38034 ft | 481 kts | 305° |
| 2026-05-07 14:50 | 44.29887 | 23.89916 | 38048 ft | 481 kts | 305° |
| 2026-05-07 14:50 | 44.34026 | 23.82577 | 38047 ft | 481 kts | 305° |
| 2026-05-07 14:51 | 44.38160 | 23.75228 | 38046 ft | 482 kts | 304° |
| 2026-05-07 14:51 | 44.42278 | 23.67889 | 38043 ft | 483 kts | 304° |
| 2026-05-07 14:52 | 44.46423 | 23.60483 | 38042 ft | 483 kts | 304° |
| 2026-05-07 14:52 | 44.50562 | 23.53068 | 38044 ft | 483 kts | 304° |
| 2026-05-07 14:53 | 44.54707 | 23.45623 | 38034 ft | 485 kts | 304° |
| 2026-05-07 14:53 | 44.58853 | 23.38157 | 38039 ft | 484 kts | 304° |
| 2026-05-07 14:54 | 44.62968 | 23.30730 | 38032 ft | 484 kts | 304° |
| 2026-05-07 14:54 | 44.67100 | 23.23250 | 38040 ft | 484 kts | 304° |
| 2026-05-07 14:55 | 44.71216 | 23.15779 | 38036 ft | 483 kts | 304° |
| 2026-05-07 14:55 | 44.75331 | 23.08290 | 38033 ft | 483 kts | 304° |
| 2026-05-07 14:56 | 44.79438 | 23.00800 | 38034 ft | 483 kts | 304° |
| 2026-05-07 14:56 | 44.83543 | 22.93291 | 38040 ft | 483 kts | 304° |
| 2026-05-07 14:57 | 44.87639 | 22.85782 | 38036 ft | 483 kts | 304° |
| 2026-05-07 14:57 | 44.91705 | 22.78303 | 38039 ft | 483 kts | 304° |
| 2026-05-07 14:58 | 44.95790 | 22.70770 | 38059 ft | 483 kts | 304° |
| 2026-05-07 14:58 | 44.99872 | 22.63228 | 38045 ft | 484 kts | 303° |
| 2026-05-07 14:59 | 45.03960 | 22.55651 | 38051 ft | 484 kts | 304° |
| 2026-05-07 14:59 | 45.08041 | 22.48069 | 38047 ft | 484 kts | 303° |
| 2026-05-07 15:00 | 45.12115 | 22.40478 | 38041 ft | 484 kts | 303° |
| 2026-05-07 15:00 | 45.16180 | 22.32881 | 38044 ft | 484 kts | 303° |
| 2026-05-07 15:01 | 45.20254 | 22.25249 | 38040 ft | 485 kts | 303° |
| 2026-05-07 15:01 | 45.24306 | 22.17642 | 38033 ft | 485 kts | 303° |
| 2026-05-07 15:02 | 45.28375 | 22.09980 | 38033 ft | 485 kts | 303° |
| 2026-05-07 15:02 | 45.32437 | 22.02309 | 38028 ft | 485 kts | 303° |
| 2026-05-07 15:03 | 45.36465 | 21.94683 | 38024 ft | 485 kts | 303° |
| 2026-05-07 15:03 | 45.40516 | 21.86992 | 38014 ft | 485 kts | 303° |
| 2026-05-07 15:04 | 45.44561 | 21.79292 | 38018 ft | 485 kts | 303° |
| 2026-05-07 15:04 | 45.47925 | 21.72871 | 38012 ft | 486 kts | 303° |
| 2026-05-07 15:05 | 45.51965 | 21.65142 | 38009 ft | 487 kts | 303° |
| 2026-05-07 15:05 | 45.56007 | 21.57388 | 38010 ft | 487 kts | 303° |
| 2026-05-07 15:06 | 45.60049 | 21.49614 | 38007 ft | 487 kts | 302° |
| 2026-05-07 15:06 | 45.64083 | 21.41831 | 38007 ft | 488 kts | 302° |
| 2026-05-07 15:07 | 45.68092 | 21.34076 | 38007 ft | 488 kts | 302° |
| 2026-05-07 15:07 | 45.72123 | 21.26258 | 38019 ft | 488 kts | 302° |
| 2026-05-07 15:08 | 45.76145 | 21.18437 | 38018 ft | 487 kts | 302° |
| 2026-05-07 15:08 | 45.80154 | 21.10618 | 38017 ft | 486 kts | 302° |
| 2026-05-07 15:09 | 45.84153 | 21.02795 | 38018 ft | 487 kts | 302° |
| 2026-05-07 15:09 | 45.88155 | 20.94946 | 38016 ft | 487 kts | 302° |
| 2026-05-07 15:10 | 45.92151 | 20.87086 | 38009 ft | 486 kts | 301° |
| 2026-05-07 15:10 | 45.96108 | 20.79284 | 38008 ft | 486 kts | 301° |
| 2026-05-07 15:11 | 46.00086 | 20.71417 | 38012 ft | 486 kts | 301° |
| 2026-05-07 15:11 | 46.04057 | 20.63542 | 38042 ft | 486 kts | 301° |
| 2026-05-07 15:12 | 46.08020 | 20.55662 | 38008 ft | 485 kts | 301° |
| 2026-05-07 15:12 | 46.11974 | 20.47777 | 38014 ft | 485 kts | 301° |
| 2026-05-07 15:13 | 46.15891 | 20.39943 | 38010 ft | 485 kts | 301° |
| 2026-05-07 15:13 | 46.20057 | 20.32242 | 38023 ft | 488 kts | 305° |
| 2026-05-07 15:14 | 46.24443 | 20.24731 | 38009 ft | 489 kts | 305° |
| 2026-05-07 15:14 | 46.28806 | 20.17184 | 38010 ft | 488 kts | 304° |
| 2026-05-07 15:15 | 46.33096 | 20.09626 | 38012 ft | 488 kts | 304° |
| 2026-05-07 15:15 | 46.37395 | 20.01986 | 38013 ft | 488 kts | 304° |
| 2026-05-07 15:16 | 46.41651 | 19.94397 | 38016 ft | 488 kts | 304° |
| 2026-05-07 15:16 | 46.45928 | 19.86753 | 38016 ft | 488 kts | 304° |
| 2026-05-07 15:17 | 46.50203 | 19.79097 | 38019 ft | 488 kts | 304° |
| 2026-05-07 15:17 | 46.54473 | 19.71427 | 38035 ft | 489 kts | 304° |
| 2026-05-07 15:18 | 46.58743 | 19.63736 | 38020 ft | 489 kts | 304° |
| 2026-05-07 15:18 | 46.63007 | 19.56035 | 38016 ft | 489 kts | 304° |
| 2026-05-07 15:19 | 46.67247 | 19.48355 | 38014 ft | 488 kts | 304° |
| 2026-05-07 15:19 | 46.71503 | 19.40616 | 38026 ft | 488 kts | 304° |
| 2026-05-07 15:20 | 46.75754 | 19.32878 | 38012 ft | 489 kts | 304° |
| 2026-05-07 15:20 | 46.80005 | 19.25121 | 38020 ft | 489 kts | 303° |
| 2026-05-07 15:21 | 46.84245 | 19.17353 | 38014 ft | 489 kts | 303° |
| 2026-05-07 15:21 | 46.88482 | 19.09572 | 38021 ft | 490 kts | 303° |
| 2026-05-07 15:22 | 46.92722 | 19.01762 | 38003 ft | 490 kts | 303° |
| 2026-05-07 15:22 | 46.96924 | 18.94000 | 37999 ft | 489 kts | 303° |
| 2026-05-07 15:23 | 47.01152 | 18.86168 | 38000 ft | 489 kts | 303° |
| 2026-05-07 15:23 | 47.05375 | 18.78323 | 38012 ft | 490 kts | 303° |
| 2026-05-07 15:24 | 47.09600 | 18.70450 | 38001 ft | 490 kts | 303° |
| 2026-05-07 15:24 | 47.13813 | 18.62578 | 37992 ft | 490 kts | 303° |
| 2026-05-07 15:25 | 47.18025 | 18.54682 | 37984 ft | 491 kts | 303° |
| 2026-05-07 15:25 | 47.22243 | 18.46759 | 38008 ft | 491 kts | 303° |
| 2026-05-07 15:26 | 47.26431 | 18.38868 | 37988 ft | 492 kts | 303° |
| 2026-05-07 15:26 | 47.30637 | 18.30920 | 37985 ft | 492 kts | 303° |
| 2026-05-07 15:27 | 47.34838 | 18.22956 | 37987 ft | 492 kts | 303° |
| 2026-05-07 15:27 | 47.39039 | 18.14971 | 38016 ft | 492 kts | 302° |
| 2026-05-07 15:28 | 47.43232 | 18.06978 | 37986 ft | 492 kts | 302° |
| 2026-05-07 15:28 | 47.47387 | 17.99030 | 37983 ft | 492 kts | 302° |
| 2026-05-07 15:29 | 47.51570 | 17.91008 | 37988 ft | 492 kts | 302° |
| 2026-05-07 15:29 | 47.55753 | 17.82964 | 37989 ft | 492 kts | 302° |
| 2026-05-07 15:30 | 47.59909 | 17.74888 | 37969 ft | 494 kts | 302° |
| 2026-05-07 15:30 | 47.64109 | 17.66783 | 37963 ft | 495 kts | 302° |
| 2026-05-07 15:31 | 47.68301 | 17.58679 | 37967 ft | 495 kts | 302° |
| 2026-05-07 15:31 | 47.72481 | 17.50554 | 37965 ft | 495 kts | 302° |
| 2026-05-07 15:32 | 47.76658 | 17.42398 | 37966 ft | 497 kts | 302° |
| 2026-05-07 15:32 | 47.80848 | 17.34194 | 37966 ft | 498 kts | 302° |
| 2026-05-07 15:33 | 47.85008 | 17.26025 | 37961 ft | 498 kts | 302° |
| 2026-05-07 15:33 | 47.89190 | 17.17789 | 37964 ft | 498 kts | 302° |
| 2026-05-07 15:34 | 47.93362 | 17.09545 | 37964 ft | 497 kts | 302° |
| 2026-05-07 15:34 | 47.97514 | 17.01314 | 37964 ft | 496 kts | 302° |
| 2026-05-07 15:35 | 48.01659 | 16.93076 | 37964 ft | 496 kts | 302° |
| 2026-05-07 15:35 | 48.05769 | 16.84880 | 37966 ft | 496 kts | 302° |
| 2026-05-07 15:36 | 48.09893 | 16.76625 | 37966 ft | 496 kts | 302° |
| 2026-05-07 15:36 | 48.14018 | 16.68355 | 37966 ft | 496 kts | 302° |
| 2026-05-07 15:37 | 48.18143 | 16.60059 | 37966 ft | 496 kts | 302° |
| 2026-05-07 15:37 | 48.22252 | 16.51769 | 37966 ft | 496 kts | 302° |
| 2026-05-07 15:38 | 48.26361 | 16.43451 | 37966 ft | 496 kts | 302° |
| 2026-05-07 15:38 | 48.30468 | 16.35111 | 37963 ft | 497 kts | 302° |
| 2026-05-07 15:39 | 48.34570 | 16.26757 | 37960 ft | 497 kts | 302° |
| 2026-05-07 15:39 | 48.38672 | 16.18376 | 37953 ft | 497 kts | 302° |
| 2026-05-07 15:40 | 48.42772 | 16.09973 | 37960 ft | 499 kts | 302° |
| 2026-05-07 15:40 | 48.46856 | 16.01576 | 37950 ft | 500 kts | 302° |
| 2026-05-07 15:41 | 48.50959 | 15.93116 | 37948 ft | 500 kts | 302° |
| 2026-05-07 15:41 | 48.55055 | 15.84643 | 37949 ft | 500 kts | 302° |
| 2026-05-07 15:42 | 48.59148 | 15.76151 | 37947 ft | 499 kts | 302° |
| 2026-05-07 15:42 | 48.63232 | 15.67648 | 37946 ft | 499 kts | 302° |
| 2026-05-07 15:43 | 48.67297 | 15.59150 | 37948 ft | 499 kts | 302° |
| 2026-05-07 15:43 | 48.71363 | 15.50632 | 37952 ft | 500 kts | 302° |
| 2026-05-07 15:44 | 48.75437 | 15.42074 | 37978 ft | 501 kts | 302° |
| 2026-05-07 15:44 | 48.79507 | 15.33493 | 37954 ft | 501 kts | 302° |
| 2026-05-07 15:45 | 48.83546 | 15.24953 | 37955 ft | 500 kts | 302° |
| 2026-05-07 15:45 | 48.87595 | 15.16364 | 37958 ft | 500 kts | 302° |
| 2026-05-07 15:46 | 48.93861 | 15.03634 | 37963 ft | 503 kts | 306° |
| 2026-05-07 15:47 | 48.98347 | 14.95448 | 37958 ft | 503 kts | 306° |
| 2026-05-07 15:47 | 49.02818 | 14.87232 | 37966 ft | 504 kts | 306° |
| 2026-05-07 15:48 | 49.07256 | 14.78920 | 37971 ft | 505 kts | 305° |
| 2026-05-07 15:48 | 49.10887 | 14.72059 | 37971 ft | 495 kts | 305° |
| 2026-05-07 15:49 | 49.15176 | 14.63920 | 37978 ft | 490 kts | 305° |
| 2026-05-07 15:49 | 49.19437 | 14.55804 | 37977 ft | 489 kts | 305° |
| 2026-05-07 15:50 | 49.23691 | 14.47682 | 37978 ft | 489 kts | 305° |
| 2026-05-07 15:50 | 49.27946 | 14.39537 | 37982 ft | 489 kts | 305° |
| 2026-05-07 15:51 | 49.32192 | 14.31383 | 37990 ft | 489 kts | 305° |
| 2026-05-07 15:51 | 49.36410 | 14.23261 | 37987 ft | 489 kts | 305° |
| 2026-05-07 15:52 | 49.40644 | 14.15084 | 37985 ft | 489 kts | 305° |
| 2026-05-07 15:52 | 49.44874 | 14.06889 | 37989 ft | 489 kts | 305° |
| 2026-05-07 15:53 | 49.49098 | 13.98679 | 38000 ft | 489 kts | 306° |
| 2026-05-07 15:53 | 49.53313 | 13.90462 | 37991 ft | 488 kts | 305° |
| 2026-05-07 15:54 | 49.57492 | 13.82289 | 37989 ft | 488 kts | 305° |
| 2026-05-07 15:54 | 49.61690 | 13.74054 | 37994 ft | 489 kts | 305° |
| 2026-05-07 15:55 | 49.65889 | 13.65788 | 37995 ft | 489 kts | 305° |
| 2026-05-07 15:55 | 49.70095 | 13.57486 | 37985 ft | 489 kts | 305° |
| 2026-05-07 15:56 | 49.74283 | 13.49193 | 38003 ft | 489 kts | 305° |
| 2026-05-07 15:56 | 49.78463 | 13.40891 | 37986 ft | 489 kts | 305° |
| 2026-05-07 15:57 | 49.82612 | 13.32623 | 37989 ft | 489 kts | 305° |
| 2026-05-07 15:57 | 49.86752 | 13.24349 | 37987 ft | 476 kts | 305° |
| 2026-05-07 15:58 | 49.90753 | 13.16335 | 37994 ft | 467 kts | 305° |
| 2026-05-07 15:58 | 49.94713 | 13.08364 | 37991 ft | 466 kts | 305° |
| 2026-05-07 15:59 | 49.98671 | 13.00372 | 37994 ft | 466 kts | 304° |
| 2026-05-07 15:59 | 50.02633 | 12.92353 | 37994 ft | 466 kts | 304° |
| 2026-05-07 16:00 | 50.06562 | 12.84380 | 37998 ft | 466 kts | 305° |
| 2026-05-07 16:00 | 50.10505 | 12.76353 | 37995 ft | 467 kts | 305° |
| 2026-05-07 16:01 | 50.14444 | 12.68309 | 37999 ft | 467 kts | 305° |
| 2026-05-07 16:01 | 50.18375 | 12.60253 | 37999 ft | 467 kts | 305° |
| 2026-05-07 16:02 | 50.22305 | 12.52177 | 38009 ft | 467 kts | 304° |
| 2026-05-07 16:02 | 50.26200 | 12.44153 | 38016 ft | 466 kts | 305° |
| 2026-05-07 16:03 | 50.30120 | 12.36056 | 38017 ft | 465 kts | 305° |
| 2026-05-07 16:03 | 50.34058 | 12.28005 | 38023 ft | 466 kts | 305° |
| 2026-05-07 16:04 | 50.38007 | 12.19955 | 38030 ft | 466 kts | 305° |
| 2026-05-07 16:04 | 50.41921 | 12.11939 | 38024 ft | 466 kts | 305° |
| 2026-05-07 16:05 | 50.45847 | 12.03858 | 38027 ft | 465 kts | 305° |
| 2026-05-07 16:05 | 50.49761 | 11.95775 | 38029 ft | 467 kts | 305° |
| 2026-05-07 16:06 | 50.53676 | 11.87664 | 38029 ft | 465 kts | 305° |
| 2026-05-07 16:06 | 50.57585 | 11.79541 | 38035 ft | 464 kts | 305° |
| 2026-05-07 16:07 | 50.61452 | 11.71403 | 38036 ft | 464 kts | 302° |
| 2026-05-07 16:07 | 50.64801 | 11.62812 | 38046 ft | 462 kts | 298° |
| 2026-05-07 16:08 | 50.68050 | 11.54045 | 38036 ft | 462 kts | 298° |
| 2026-05-07 16:08 | 50.71278 | 11.45263 | 38048 ft | 462 kts | 298° |
| 2026-05-07 16:09 | 50.74494 | 11.36474 | 38035 ft | 462 kts | 298° |
| 2026-05-07 16:09 | 50.77705 | 11.27671 | 38043 ft | 462 kts | 298° |
| 2026-05-07 16:10 | 50.80888 | 11.18909 | 38047 ft | 462 kts | 298° |
| 2026-05-07 16:10 | 50.84085 | 11.10081 | 38049 ft | 463 kts | 298° |
| 2026-05-07 16:11 | 50.87281 | 11.01222 | 38047 ft | 463 kts | 298° |
| 2026-05-07 16:11 | 50.90472 | 10.92347 | 38048 ft | 463 kts | 298° |
| 2026-05-07 16:12 | 50.93655 | 10.83466 | 38048 ft | 463 kts | 298° |
| 2026-05-07 16:12 | 50.96805 | 10.74642 | 38048 ft | 463 kts | 298° |
| 2026-05-07 16:13 | 50.99969 | 10.65750 | 38050 ft | 463 kts | 298° |
| 2026-05-07 16:13 | 51.03126 | 10.56842 | 38047 ft | 463 kts | 298° |
| 2026-05-07 16:14 | 51.06283 | 10.47909 | 38053 ft | 463 kts | 298° |
| 2026-05-07 16:14 | 51.09430 | 10.38975 | 38053 ft | 463 kts | 298° |
| 2026-05-07 16:15 | 51.12570 | 10.30026 | 38056 ft | 463 kts | 297° |
| 2026-05-07 16:15 | 51.15701 | 10.21071 | 38053 ft | 463 kts | 297° |
| 2026-05-07 16:16 | 51.18832 | 10.12086 | 38059 ft | 463 kts | 297° |
| 2026-05-07 16:16 | 51.21932 | 10.03155 | 38065 ft | 463 kts | 297° |
| 2026-05-07 16:17 | 51.25047 | 9.94150 | 38055 ft | 463 kts | 297° |
| 2026-05-07 16:17 | 51.28151 | 9.85145 | 38055 ft | 463 kts | 297° |
| 2026-05-07 16:18 | 51.31254 | 9.76111 | 38059 ft | 463 kts | 297° |
| 2026-05-07 16:18 | 51.34342 | 9.67086 | 38069 ft | 463 kts | 297° |
| 2026-05-07 16:19 | 51.37430 | 9.58032 | 38074 ft | 463 kts | 297° |
| 2026-05-07 16:19 | 51.40504 | 9.48985 | 38075 ft | 463 kts | 297° |
| 2026-05-07 16:20 | 51.43552 | 9.39982 | 38082 ft | 463 kts | 297° |
| 2026-05-07 16:20 | 51.46612 | 9.30906 | 38062 ft | 463 kts | 297° |
| 2026-05-07 16:21 | 51.49671 | 9.21808 | 38059 ft | 463 kts | 297° |
| 2026-05-07 16:21 | 51.52720 | 9.12703 | 38061 ft | 463 kts | 297° |
| 2026-05-07 16:22 | 51.55765 | 9.03579 | 38069 ft | 463 kts | 297° |
| 2026-05-07 16:22 | 51.58862 | 8.94616 | 38112 ft | 448 kts | 299° |
| 2026-05-07 16:23 | 51.61809 | 8.85653 | 38075 ft | 458 kts | 296° |
| 2026-05-07 16:23 | 51.64751 | 8.76536 | 38075 ft | 464 kts | 296° |
| 2026-05-07 16:24 | 51.67752 | 8.67348 | 38075 ft | 463 kts | 296° |
| 2026-05-07 16:24 | 51.70754 | 8.58166 | 38074 ft | 463 kts | 296° |
| 2026-05-07 16:25 | 51.73750 | 8.48981 | 38073 ft | 463 kts | 296° |
| 2026-05-07 16:25 | 51.76740 | 8.39783 | 38068 ft | 463 kts | 296° |
| 2026-05-07 16:26 | 51.79722 | 8.30572 | 38073 ft | 463 kts | 296° |
| 2026-05-07 16:26 | 51.82704 | 8.21339 | 38073 ft | 463 kts | 296° |
| 2026-05-07 16:27 | 51.85673 | 8.12106 | 37719 ft | 461 kts | 296° |
| 2026-05-07 16:27 | 51.87148 | 8.07507 | 37204 ft | 461 kts | 296° |
| 2026-05-07 16:27 | 51.88625 | 8.02891 | 36534 ft | 462 kts | 296° |
| 2026-05-07 16:27 | 51.90102 | 7.98268 | 35895 ft | 462 kts | 297° |
| 2026-05-07 16:28 | 51.91565 | 7.93679 | 35334 ft | 460 kts | 297° |
| 2026-05-07 16:28 | 51.93037 | 7.89052 | 34846 ft | 458 kts | 297° |
| 2026-05-07 16:28 | 51.94493 | 7.84466 | 34373 ft | 457 kts | 297° |
| 2026-05-07 16:28 | 51.95940 | 7.79900 | 33867 ft | 454 kts | 297° |
| 2026-05-07 16:29 | 51.97378 | 7.75359 | 33344 ft | 452 kts | 297° |
| 2026-05-07 16:29 | 51.98813 | 7.70819 | 32875 ft | 454 kts | 297° |
| 2026-05-07 16:29 | 52.00254 | 7.66250 | 32415 ft | 456 kts | 297° |
| 2026-05-07 16:29 | 52.01700 | 7.61657 | 31945 ft | 458 kts | 297° |
| 2026-05-07 16:30 | 52.03130 | 7.57105 | 31498 ft | 458 kts | 296° |
| 2026-05-07 16:30 | 52.04571 | 7.52508 | 31035 ft | 456 kts | 296° |
| 2026-05-07 16:30 | 52.06000 | 7.47942 | 30535 ft | 450 kts | 296° |
| 2026-05-07 16:30 | 52.07416 | 7.43412 | 30050 ft | 450 kts | 296° |
| 2026-05-07 16:31 | 52.08842 | 7.38834 | 29550 ft | 458 kts | 296° |
| 2026-05-07 16:31 | 52.10293 | 7.34172 | 29063 ft | 464 kts | 296° |
| 2026-05-07 16:31 | 52.11750 | 7.29482 | 28574 ft | 464 kts | 296° |
| 2026-05-07 16:31 | 52.13198 | 7.24809 | 28164 ft | 461 kts | 296° |
| 2026-05-07 16:32 | 52.14640 | 7.20150 | 27909 ft | 460 kts | 296° |
| 2026-05-07 16:32 | 52.16075 | 7.15505 | 27670 ft | 458 kts | 296° |
| 2026-05-07 16:32 | 52.17501 | 7.10877 | 27378 ft | 454 kts | 296° |
| 2026-05-07 16:32 | 52.18894 | 7.06349 | 26785 ft | 450 kts | 295° |
| 2026-05-07 16:33 | 52.20291 | 7.01799 | 26154 ft | 447 kts | 295° |
| 2026-05-07 16:33 | 52.21805 | 6.97370 | 25541 ft | 445 kts | 303° |
| 2026-05-07 16:33 | 52.23678 | 6.93355 | 25002 ft | 442 kts | 308° |
| 2026-05-07 16:33 | 52.25621 | 6.89481 | 24450 ft | 439 kts | 308° |
| 2026-05-07 16:34 | 52.26902 | 6.86938 | 24091 ft | 437 kts | 308° |
| 2026-05-07 16:34 | 52.28823 | 6.83115 | 23545 ft | 433 kts | 308° |
| 2026-05-07 16:34 | 52.30723 | 6.79320 | 22915 ft | 430 kts | 308° |
| 2026-05-07 16:34 | 52.33214 | 6.74325 | 22125 ft | 425 kts | 308° |
| 2026-05-07 16:35 | 52.35076 | 6.70590 | 21519 ft | 422 kts | 308° |
| 2026-05-07 16:35 | 52.36329 | 6.68067 | 21140 ft | 420 kts | 308° |
| 2026-05-07 16:35 | 52.38158 | 6.64376 | 20627 ft | 415 kts | 308° |
| 2026-05-07 16:35 | 52.40547 | 6.59548 | 20153 ft | 410 kts | 308° |
| 2026-05-07 16:36 | 52.41741 | 6.57132 | 19995 ft | 410 kts | 308° |
| 2026-05-07 16:36 | 52.43535 | 6.53496 | 19612 ft | 409 kts | 308° |
| 2026-05-07 16:36 | 52.45308 | 6.49854 | 19128 ft | 406 kts | 306° |
| 2026-05-07 16:36 | 52.46659 | 6.45843 | 18681 ft | 401 kts | 288° |
| 2026-05-07 16:37 | 52.47205 | 6.41389 | 18197 ft | 398 kts | 276° |
| 2026-05-07 16:37 | 52.47435 | 6.36864 | 17687 ft | 397 kts | 274° |
| 2026-05-07 16:37 | 52.47635 | 6.32362 | 17224 ft | 395 kts | 274° |
| 2026-05-07 16:37 | 52.47839 | 6.27879 | 16761 ft | 393 kts | 274° |
| 2026-05-07 16:38 | 52.48047 | 6.23434 | 16297 ft | 390 kts | 274° |
| 2026-05-07 16:38 | 52.48258 | 6.19018 | 15836 ft | 386 kts | 274° |
| 2026-05-07 16:38 | 52.48467 | 6.14642 | 15393 ft | 383 kts | 274° |
| 2026-05-07 16:38 | 52.48672 | 6.10352 | 14937 ft | 382 kts | 274° |
| 2026-05-07 16:39 | 52.48879 | 6.06016 | 14479 ft | 380 kts | 274° |
| 2026-05-07 16:39 | 52.49084 | 6.01703 | 14030 ft | 378 kts | 274° |
| 2026-05-07 16:39 | 52.49287 | 5.97425 | 13563 ft | 375 kts | 274° |
| 2026-05-07 16:39 | 52.49486 | 5.93177 | 13078 ft | 371 kts | 274° |
| 2026-05-07 16:40 | 52.49681 | 5.88960 | 12642 ft | 369 kts | 274° |
| 2026-05-07 16:40 | 52.49874 | 5.84792 | 12267 ft | 362 kts | 274° |
| 2026-05-07 16:40 | 52.50061 | 5.80719 | 12088 ft | 349 kts | 274° |
| 2026-05-07 16:40 | 52.50238 | 5.76840 | 11987 ft | 334 kts | 274° |
| 2026-05-07 16:41 | 52.50405 | 5.73156 | 11811 ft | 323 kts | 274° |
| 2026-05-07 16:41 | 52.50567 | 5.69536 | 11604 ft | 312 kts | 273° |
| 2026-05-07 16:41 | 52.50723 | 5.66038 | 11433 ft | 302 kts | 273° |
| 2026-05-07 16:41 | 52.50873 | 5.62662 | 11205 ft | 293 kts | 273° |
| 2026-05-07 16:42 | 52.51009 | 5.59335 | 10828 ft | 292 kts | 272° |
| 2026-05-07 16:42 | 52.50797 | 5.56045 | 10465 ft | 289 kts | 252° |
| 2026-05-07 16:42 | 52.50072 | 5.53037 | 10140 ft | 281 kts | 245° |
| 2026-05-07 16:42 | 52.49238 | 5.50122 | 10078 ft | 283 kts | 245° |
| 2026-05-07 16:43 | 52.48402 | 5.47210 | 10075 ft | 281 kts | 244° |
| 2026-05-07 16:43 | 52.47588 | 5.44364 | 9878 ft | 278 kts | 244° |
| 2026-05-07 16:43 | 52.46767 | 5.41483 | 9359 ft | 280 kts | 244° |
| 2026-05-07 16:43 | 52.45939 | 5.38572 | 8879 ft | 282 kts | 244° |
| 2026-05-07 16:44 | 52.45115 | 5.35678 | 8580 ft | 278 kts | 244° |
| 2026-05-07 16:44 | 52.44302 | 5.32819 | 8373 ft | 276 kts | 244° |
| 2026-05-07 16:44 | 52.43491 | 5.29970 | 8179 ft | 275 kts | 244° |
| 2026-05-07 16:44 | 52.42683 | 5.27135 | 7958 ft | 273 kts | 244° |
| 2026-05-07 16:45 | 52.41876 | 5.24310 | 7776 ft | 273 kts | 244° |
| 2026-05-07 16:45 | 52.41071 | 5.21493 | 7578 ft | 273 kts | 244° |
| 2026-05-07 16:45 | 52.40263 | 5.18672 | 7377 ft | 273 kts | 244° |
| 2026-05-07 16:45 | 52.39455 | 5.15848 | 7174 ft | 273 kts | 243° |
| 2026-05-07 16:46 | 52.38650 | 5.13040 | 6973 ft | 272 kts | 244° |
| 2026-05-07 16:46 | 52.37849 | 5.10246 | 6792 ft | 271 kts | 243° |
| 2026-05-07 16:46 | 52.37056 | 5.07491 | 6595 ft | 271 kts | 244° |
| 2026-05-07 16:46 | 52.36255 | 5.04706 | 6389 ft | 270 kts | 243° |
| 2026-05-07 16:47 | 52.35450 | 5.01919 | 6193 ft | 270 kts | 244° |
| 2026-05-07 16:47 | 52.34652 | 4.99147 | 6000 ft | 270 kts | 243° |
| 2026-05-07 16:47 | 52.33851 | 4.96374 | 5804 ft | 269 kts | 243° |
| 2026-05-07 16:47 | 52.33053 | 4.93610 | 5607 ft | 268 kts | 243° |
| 2026-05-07 16:48 | 52.32255 | 4.90857 | 5417 ft | 266 kts | 243° |
| 2026-05-07 16:48 | 52.31461 | 4.88119 | 5213 ft | 266 kts | 244° |
| 2026-05-07 16:48 | 52.30667 | 4.85385 | 4954 ft | 266 kts | 244° |
| 2026-05-07 16:48 | 52.29885 | 4.82692 | 4745 ft | 266 kts | 244° |
| 2026-05-07 16:49 | 52.29079 | 4.79919 | 4559 ft | 266 kts | 244° |
| 2026-05-07 16:49 | 52.28295 | 4.77222 | 4363 ft | 267 kts | 244° |
| 2026-05-07 16:49 | 52.27498 | 4.74491 | 4178 ft | 267 kts | 244° |
| 2026-05-07 16:49 | 52.26725 | 4.71841 | 3985 ft | 267 kts | 244° |
| 2026-05-07 16:50 | 52.25943 | 4.69161 | 3797 ft | 267 kts | 244° |
| 2026-05-07 16:50 | 52.25151 | 4.66454 | 3608 ft | 266 kts | 244° |
| 2026-05-07 16:50 | 52.24380 | 4.63820 | 3483 ft | 255 kts | 244° |
| 2026-05-07 16:50 | 52.23641 | 4.61298 | 3353 ft | 241 kts | 244° |
| 2026-05-07 16:51 | 52.22944 | 4.58921 | 3265 ft | 225 kts | 244° |
| 2026-05-07 16:51 | 52.22278 | 4.56636 | 3170 ft | 225 kts | 245° |
| 2026-05-07 16:51 | 52.21920 | 4.54184 | 3069 ft | 226 kts | 274° |
| 2026-05-07 16:51 | 52.22451 | 4.51906 | 2978 ft | 214 kts | 313° |
| 2026-05-07 16:52 | 52.23613 | 4.50666 | 2807 ft | 191 kts | 347° |
| 2026-05-07 16:52 | 52.24878 | 4.50613 | 2559 ft | 178 kts | 17° |
| 2026-05-07 16:52 | 52.25940 | 4.51545 | 2272 ft | 174 kts | 44° |
| 2026-05-07 16:52 | 52.26586 | 4.53173 | 2038 ft | 171 kts | 71° |
| 2026-05-07 16:53 | 52.26677 | 4.55052 | 1992 ft | 161 kts | 97° |
| 2026-05-07 16:53 | 52.26262 | 4.56708 | 1984 ft | 159 kts | 122° |
| 2026-05-07 16:53 | 52.25460 | 4.57921 | 1992 ft | 162 kts | 144° |
| 2026-05-07 16:53 | 52.24531 | 4.58869 | 2189 ft | 161 kts | 143° |
| 2026-05-07 16:54 | 52.23397 | 4.59723 | 2260 ft | 195 kts | 163° |
| 2026-05-07 16:54 | 52.22082 | 4.59612 | 2377 ft | 183 kts | 198° |
| 2026-05-07 16:54 | 52.21082 | 4.58474 | 2295 ft | 171 kts | 230° |
| 2026-05-07 16:54 | 52.20044 | 4.57322 | 2433 ft | 206 kts | 201° |
| 2026-05-07 16:55 | 52.18692 | 4.56635 | 2533 ft | 194 kts | 191° |
| 2026-05-07 16:55 | 52.17433 | 4.56246 | 2530 ft | 175 kts | 185° |
| 2026-05-07 16:55 | 52.16315 | 4.55803 | 2443 ft | 160 kts | 202° |
| 2026-05-07 16:55 | 52.15489 | 4.54776 | 2286 ft | 146 kts | 242° |
| 2026-05-07 16:56 | 52.15443 | 4.53109 | 2232 ft | 171 kts | 292° |
| 2026-05-07 16:56 | 52.16238 | 4.51605 | 2330 ft | 190 kts | 333° |
| 2026-05-07 16:56 | 52.18429 | 4.52315 | 2270 ft | 174 kts | 53° |
| 2026-05-07 16:57 | 52.19166 | 4.53915 | 2395 ft | 182 kts | 53° |
| 2026-05-07 16:57 | 52.20019 | 4.55592 | 2612 ft | 202 kts | 49° |
| 2026-05-07 16:57 | 52.21078 | 4.57030 | 2647 ft | 192 kts | 32° |
| 2026-05-07 16:57 | 52.22222 | 4.58018 | 2555 ft | 179 kts | 29° |
| 2026-05-07 16:58 | 52.23184 | 4.59210 | 2424 ft | 169 kts | 44° |
| 2026-05-07 16:58 | 52.23871 | 4.60712 | 2246 ft | 164 kts | 59° |
| 2026-05-07 16:58 | 52.24476 | 4.62275 | 2013 ft | 161 kts | 55° |
| 2026-05-07 16:58 | 52.25084 | 4.63793 | 1656 ft | 159 kts | 58° |
| 2026-05-07 16:59 | 52.25648 | 4.65310 | 1353 ft | 154 kts | 56° |
| 2026-05-07 16:59 | 52.26214 | 4.66777 | 1029 ft | 151 kts | 56° |
| 2026-05-07 16:59 | 52.26769 | 4.68195 | 798 ft | 144 kts | 56° |
| 2026-05-07 16:59 | 52.27285 | 4.69525 | 586 ft | 137 kts | 56° |
| 2026-05-07 17:00 | 52.27788 | 4.70817 | 395 ft | 130 kts | 55° |
| 2026-05-07 17:00 | 52.28283 | 4.72070 | 251 ft | 141 kts | 58° |
| 2026-05-07 17:00 | 52.28816 | 4.73476 | 67 ft | 153 kts | 58° |
| 2026-05-07 17:00 | 52.29268 | 4.74715 | 584 ft | 151 kts | 59° |
| 2026-05-07 17:01 | 52.29810 | 4.76181 | 1293 ft | 177 kts | 57° |
| 2026-05-07 17:01 | 52.30495 | 4.77976 | 2135 ft | 199 kts | 58° |
| 2026-05-07 17:01 | 52.31202 | 4.79790 | 2760 ft | 179 kts | 57° |
| 2026-05-07 17:01 | 52.31860 | 4.81460 | 3166 ft | 185 kts | 58° |
| 2026-05-07 17:02 | 52.32579 | 4.83289 | 3533 ft | 201 kts | 58° |
| 2026-05-07 17:02 | 52.33356 | 4.85267 | 3785 ft | 223 kts | 58° |
| 2026-05-07 17:02 | 52.34242 | 4.87528 | 3806 ft | 257 kts | 58° |
| 2026-05-07 17:02 | 52.35110 | 4.90187 | 4066 ft | 273 kts | 68° |
| 2026-05-07 17:03 | 52.35822 | 4.93019 | 4275 ft | 266 kts | 69° |
| 2026-05-07 17:03 | 52.36499 | 4.95782 | 4058 ft | 258 kts | 68° |
| 2026-05-07 17:03 | 52.37157 | 4.98487 | 3618 ft | 260 kts | 68° |
| 2026-05-07 17:03 | 52.37827 | 5.01243 | 3258 ft | 258 kts | 67° |
| 2026-05-07 17:04 | 52.38476 | 5.03923 | 3071 ft | 249 kts | 67° |
| 2026-05-07 17:04 | 52.39077 | 5.06414 | 3179 ft | 228 kts | 67° |
| 2026-05-07 17:04 | 52.39618 | 5.08667 | 3398 ft | 202 kts | 67° |
| 2026-05-07 17:04 | 52.40102 | 5.10672 | 3381 ft | 187 kts | 67° |
| 2026-05-07 17:05 | 52.40553 | 5.12544 | 3365 ft | 174 kts | 66° |
| 2026-05-07 17:05 | 52.41012 | 5.14486 | 3715 ft | 197 kts | 68° |
| 2026-05-07 17:05 | 52.41525 | 5.16657 | 4246 ft | 222 kts | 68° |
| 2026-05-07 17:05 | 52.41938 | 5.19178 | 4628 ft | 246 kts | 87° |
| 2026-05-07 17:06 | 52.41519 | 5.21993 | 4698 ft | 274 kts | 121° |
| 2026-05-07 17:06 | 52.40238 | 5.24022 | 4690 ft | 262 kts | 153° |
| 2026-05-07 17:06 | 52.38764 | 5.24553 | 4659 ft | 248 kts | 184° |
| 2026-05-07 17:06 | 52.37275 | 5.23593 | 4638 ft | 232 kts | 221° |
| 2026-05-07 17:07 | 52.36532 | 5.21577 | 4625 ft | 216 kts | 258° |
| 2026-05-07 17:07 | 52.36342 | 5.19340 | 4596 ft | 202 kts | 263° |
| 2026-05-07 17:07 | 52.36232 | 5.17303 | 4572 ft | 193 kts | 266° |
| 2026-05-07 17:07 | 52.36195 | 5.15228 | 4588 ft | 198 kts | 270° |
| 2026-05-07 17:08 | 52.36237 | 5.13011 | 4594 ft | 201 kts | 273° |
| 2026-05-07 17:08 | 52.36349 | 5.10734 | 4599 ft | 200 kts | 274° |
| 2026-05-07 17:08 | 52.36005 | 5.08556 | 4737 ft | 201 kts | 242° |
| 2026-05-07 17:08 | 52.35377 | 5.06493 | 4908 ft | 202 kts | 240° |
| 2026-05-07 17:09 | 52.34697 | 5.04529 | 4820 ft | 201 kts | 239° |
| 2026-05-07 17:09 | 52.34006 | 5.02567 | 4738 ft | 200 kts | 239° |
| 2026-05-07 17:09 | 52.33332 | 5.00586 | 4692 ft | 201 kts | 241° |
| 2026-05-07 17:09 | 52.32674 | 4.98589 | 4632 ft | 201 kts | 241° |
| 2026-05-07 17:10 | 52.32024 | 4.96569 | 4571 ft | 201 kts | 242° |
| 2026-05-07 17:10 | 52.31385 | 4.94539 | 4510 ft | 201 kts | 243° |
| 2026-05-07 17:10 | 52.30764 | 4.92515 | 4451 ft | 201 kts | 243° |
| 2026-05-07 17:10 | 52.30181 | 4.90556 | 4405 ft | 202 kts | 243° |
| 2026-05-07 17:11 | 52.29609 | 4.88574 | 4345 ft | 202 kts | 244° |
| 2026-05-07 17:11 | 52.29047 | 4.86587 | 4200 ft | 203 kts | 244° |
| 2026-05-07 17:11 | 52.28482 | 4.84538 | 3972 ft | 203 kts | 246° |
| 2026-05-07 17:12 | 52.27460 | 4.80531 | 3410 ft | 204 kts | 248° |
| 2026-05-07 17:12 | 52.26940 | 4.78413 | 3129 ft | 204 kts | 248° |
| 2026-05-07 17:12 | 52.26417 | 4.76280 | 2836 ft | 204 kts | 248° |
| 2026-05-07 17:12 | 52.25891 | 4.74144 | 2554 ft | 204 kts | 248° |
| 2026-05-07 17:13 | 52.25342 | 4.71973 | 2283 ft | 203 kts | 245° |
| 2026-05-07 17:13 | 52.24763 | 4.69895 | 1987 ft | 204 kts | 244° |
| 2026-05-07 17:13 | 52.24151 | 4.67825 | 1726 ft | 204 kts | 244° |
| 2026-05-07 17:13 | 52.23537 | 4.65857 | 1646 ft | 192 kts | 237° |
| 2026-05-07 17:14 | 52.22672 | 4.64234 | 2044 ft | 218 kts | 226° |
| 2026-05-07 17:14 | 52.21744 | 4.62561 | 2747 ft | 205 kts | 227° |
| 2026-05-07 17:14 | 52.20848 | 4.60872 | 3400 ft | 201 kts | 229° |
| 2026-05-07 17:14 | 52.19985 | 4.59152 | 4052 ft | 200 kts | 231° |
| 2026-05-07 17:15 | 52.19148 | 4.57364 | 4738 ft | 196 kts | 232° |
| 2026-05-07 17:15 | 52.18407 | 4.55615 | 5507 ft | 187 kts | 235° |
| 2026-05-07 17:15 | 52.17775 | 4.53926 | 6360 ft | 169 kts | 238° |
| 2026-05-07 17:15 | 52.17196 | 4.52412 | 6633 ft | 184 kts | 231° |
| 2026-05-07 17:16 | 52.16481 | 4.50809 | 6779 ft | 195 kts | 231° |
| 2026-05-07 17:16 | 52.15691 | 4.49101 | 7270 ft | 195 kts | 231° |
| 2026-05-07 17:16 | 52.14843 | 4.47476 | 7895 ft | 192 kts | 221° |
| 2026-05-07 17:16 | 52.14128 | 4.46656 | 8306 ft | 188 kts | 206° |
| 2026-05-07 17:17 | 52.12885 | 4.46196 | 8907 ft | 185 kts | 177° |
| 2026-05-07 17:17 | 52.11685 | 4.46906 | 9406 ft | 189 kts | 142° |
| 2026-05-07 17:17 | 52.10959 | 4.48683 | 9838 ft | 196 kts | 105° |
| 2026-05-07 17:17 | 52.10989 | 4.50952 | 10008 ft | 215 kts | 72° |
| 2026-05-07 17:18 | 52.11835 | 4.52974 | 10006 ft | 223 kts | 37° |
| 2026-05-07 17:18 | 52.13220 | 4.53904 | 9992 ft | 219 kts | 3° |
| 2026-05-07 17:18 | 52.14593 | 4.53482 | 9993 ft | 215 kts | 330° |
| 2026-05-07 17:18 | 52.15638 | 4.51817 | 9992 ft | 212 kts | 295° |
| 2026-05-07 17:19 | 52.15905 | 4.49548 | 9985 ft | 209 kts | 261° |
| 2026-05-07 17:19 | 52.15349 | 4.47495 | 9991 ft | 208 kts | 227° |
| 2026-05-07 17:19 | 52.14132 | 4.46287 | 9982 ft | 207 kts | 192° |
| 2026-05-07 17:19 | 52.12847 | 4.46378 | 9986 ft | 210 kts | 162° |